sensor_id;sensor_type;location;lat;lon;timestamp;temperature;humidity
8633;DHT22;4354;49.832;10.746;2023-02-19T00:01:25;9.40;99.90
8633;DHT22;4354;49.832;10.746;2023-02-19T00:03:57;9.50;99.90
8633;DHT22;4354;49.832;10.746;2023-02-19T00:06:29;9.50;99.90
8633;DHT22;4354;49.832;10.746;2023-02-19T00:08:57;9.50;99.90
8633;DHT22;4354;49.832;10.746;2023-02-19T00:11:26;9.40;99.90
8633;DHT22;4354;49.832;10.746;2023-02-19T00:13:54;9.30;99.90
8633;DHT22;4354;49.832;10.746;2023-02-19T00:16:28;9.30;99.90
8633;DHT22;4354;49.832;10.746;2023-02-19T00:18:56;9.30;99.90
8633;DHT22;4354;49.832;10.746;2023-02-19T00:21:24;9.30;99.90
8633;DHT22;4354;49.832;10.746;2023-02-19T00:23:52;9.30;99.90
8633;DHT22;4354;49.832;10.746;2023-02-19T00:26:20;9.20;99.90
8633;DHT22;4354;49.832;10.746;2023-02-19T00:28:49;9.10;99.90
8633;DHT22;4354;49.832;10.746;2023-02-19T00:31:22;9.10;99.90
8633;DHT22;4354;49.832;10.746;2023-02-19T00:33:52;9.00;99.90
8633;DHT22;4354;49.832;10.746;2023-02-19T00:36:20;9.00;99.90
8633;DHT22;4354;49.832;10.746;2023-02-19T00:38:47;9.10;99.90
8633;DHT22;4354;49.832;10.746;2023-02-19T00:41:15;9.00;99.90
8633;DHT22;4354;49.832;10.746;2023-02-19T00:44:15;9.00;99.90
8633;DHT22;4354;49.832;10.746;2023-02-19T00:46:46;9.00;99.90
8633;DHT22;4354;49.832;10.746;2023-02-19T00:49:19;9.00;99.90
8633;DHT22;4354;49.832;10.746;2023-02-19T00:51:46;9.00;99.90
8633;DHT22;4354;49.832;10.746;2023-02-19T00:54:14;9.00;99.90
8633;DHT22;4354;49.832;10.746;2023-02-19T00:56:41;9.00;99.90
8633;DHT22;4354;49.832;10.746;2023-02-19T00:59:08;9.00;99.90
8633;DHT22;4354;49.832;10.746;2023-02-19T01:01:35;9.00;99.90
8633;DHT22;4354;49.832;10.746;2023-02-19T01:04:01;9.00;99.90
8633;DHT22;4354;49.832;10.746;2023-02-19T01:06:31;9.00;99.90
8633;DHT22;4354;49.832;10.746;2023-02-19T01:09:00;9.00;99.90
8633;DHT22;4354;49.832;10.746;2023-02-19T01:11:27;9.00;99.90
8633;DHT22;4354;49.832;10.746;2023-02-19T01:13:58;9.00;99.90
8633;DHT22;4354;49.832;10.746;2023-02-19T01:16:25;8.90;99.90
8633;DHT22;4354;49.832;10.746;2023-02-19T01:18:53;9.00;99.90
8633;DHT22;4354;49.832;10.746;2023-02-19T01:21:24;9.00;99.90
8633;DHT22;4354;49.832;10.746;2023-02-19T01:23:52;8.90;99.90
8633;DHT22;4354;49.832;10.746;2023-02-19T01:26:21;8.90;99.90
8633;DHT22;4354;49.832;10.746;2023-02-19T01:28:49;8.90;99.90
8633;DHT22;4354;49.832;10.746;2023-02-19T01:31:18;8.90;99.90
8633;DHT22;4354;49.832;10.746;2023-02-19T01:33:47;8.90;99.90
8633;DHT22;4354;49.832;10.746;2023-02-19T01:36:14;8.90;99.90
8633;DHT22;4354;49.832;10.746;2023-02-19T01:38:41;8.90;99.90
8633;DHT22;4354;49.832;10.746;2023-02-19T01:41:14;8.90;99.90
8633;DHT22;4354;49.832;10.746;2023-02-19T01:44:05;8.90;99.90
8633;DHT22;4354;49.832;10.746;2023-02-19T01:46:38;8.90;99.90
8633;DHT22;4354;49.832;10.746;2023-02-19T01:49:13;8.90;99.90
8633;DHT22;4354;49.832;10.746;2023-02-19T01:51:44;8.90;99.90
8633;DHT22;4354;49.832;10.746;2023-02-19T01:54:14;8.90;99.90
8633;DHT22;4354;49.832;10.746;2023-02-19T01:56:45;8.90;99.90
8633;DHT22;4354;49.832;10.746;2023-02-19T01:59:13;8.90;99.90
8633;DHT22;4354;49.832;10.746;2023-02-19T02:01:40;8.80;99.90
8633;DHT22;4354;49.832;10.746;2023-02-19T02:04:08;8.80;99.90
8633;DHT22;4354;49.832;10.746;2023-02-19T02:06:52;8.80;99.90
8633;DHT22;4354;49.832;10.746;2023-02-19T02:09:23;8.80;99.90
8633;DHT22;4354;49.832;10.746;2023-02-19T02:12:09;8.80;99.90
8633;DHT22;4354;49.832;10.746;2023-02-19T02:14:38;8.80;99.90
8633;DHT22;4354;49.832;10.746;2023-02-19T02:28:18;8.70;99.90
8633;DHT22;4354;49.832;10.746;2023-02-19T02:36:16;8.70;99.90
8633;DHT22;4354;49.832;10.746;2023-02-19T02:38:45;8.70;99.90
8633;DHT22;4354;49.832;10.746;2023-02-19T02:41:13;8.70;99.90
8633;DHT22;4354;49.832;10.746;2023-02-19T02:43:41;8.70;99.90
8633;DHT22;4354;49.832;10.746;2023-02-19T02:46:12;8.70;99.90
8633;DHT22;4354;49.832;10.746;2023-02-19T02:48:48;8.70;99.90
8633;DHT22;4354;49.832;10.746;2023-02-19T02:51:33;8.70;99.90
8633;DHT22;4354;49.832;10.746;2023-02-19T02:54:17;8.70;99.90
8633;DHT22;4354;49.832;10.746;2023-02-19T02:57:08;8.70;99.90
8633;DHT22;4354;49.832;10.746;2023-02-19T02:59:41;8.70;99.90
8633;DHT22;4354;49.832;10.746;2023-02-19T03:02:15;8.70;99.90
8633;DHT22;4354;49.832;10.746;2023-02-19T03:07:50;8.80;99.90
8633;DHT22;4354;49.832;10.746;2023-02-19T03:13:19;8.80;99.90
8633;DHT22;4354;49.832;10.746;2023-02-19T03:16:11;8.80;99.90
8633;DHT22;4354;49.832;10.746;2023-02-19T03:18:59;8.80;99.90
8633;DHT22;4354;49.832;10.746;2023-02-19T03:22:11;8.80;99.90
8633;DHT22;4354;49.832;10.746;2023-02-19T03:24:50;8.80;99.90
8633;DHT22;4354;49.832;10.746;2023-02-19T03:27:40;8.90;99.90
8633;DHT22;4354;49.832;10.746;2023-02-19T03:30:11;8.90;99.90
8633;DHT22;4354;49.832;10.746;2023-02-19T03:32:48;8.90;99.90
8633;DHT22;4354;49.832;10.746;2023-02-19T03:35:21;8.90;99.90
8633;DHT22;4354;49.832;10.746;2023-02-19T03:40:15;8.90;99.90
8633;DHT22;4354;49.832;10.746;2023-02-19T03:42:45;8.90;99.90
8633;DHT22;4354;49.832;10.746;2023-02-19T03:48:33;8.90;99.90
8633;DHT22;4354;49.832;10.746;2023-02-19T03:54:31;8.90;99.90
8633;DHT22;4354;49.832;10.746;2023-02-19T03:57:18;8.80;99.90
8633;DHT22;4354;49.832;10.746;2023-02-19T04:00:22;8.80;99.90
8633;DHT22;4354;49.832;10.746;2023-02-19T04:05:32;8.80;99.90
8633;DHT22;4354;49.832;10.746;2023-02-19T04:08:08;8.90;99.90
8633;DHT22;4354;49.832;10.746;2023-02-19T04:10:37;8.80;99.90
8633;DHT22;4354;49.832;10.746;2023-02-19T04:13:10;8.80;99.90
8633;DHT22;4354;49.832;10.746;2023-02-19T04:15:40;8.90;99.90
8633;DHT22;4354;49.832;10.746;2023-02-19T04:18:11;8.90;99.90
8633;DHT22;4354;49.832;10.746;2023-02-19T04:20:43;8.80;99.90
8633;DHT22;4354;49.832;10.746;2023-02-19T04:23:15;8.80;99.90
8633;DHT22;4354;49.832;10.746;2023-02-19T04:25:45;8.90;99.90
8633;DHT22;4354;49.832;10.746;2023-02-19T04:28:14;8.90;99.90
8633;DHT22;4354;49.832;10.746;2023-02-19T04:30:42;8.90;99.90
8633;DHT22;4354;49.832;10.746;2023-02-19T04:33:09;8.90;99.90
8633;DHT22;4354;49.832;10.746;2023-02-19T04:35:36;9.00;99.90
8633;DHT22;4354;49.832;10.746;2023-02-19T04:38:03;9.00;99.90
8633;DHT22;4354;49.832;10.746;2023-02-19T04:40:30;9.00;99.90
8633;DHT22;4354;49.832;10.746;2023-02-19T04:42:56;9.00;99.90
8633;DHT22;4354;49.832;10.746;2023-02-19T04:45:23;9.00;99.90
8633;DHT22;4354;49.832;10.746;2023-02-19T04:47:50;9.00;99.90
8633;DHT22;4354;49.832;10.746;2023-02-19T04:50:17;8.90;99.90
8633;DHT22;4354;49.832;10.746;2023-02-19T04:52:44;8.90;99.90
8633;DHT22;4354;49.832;10.746;2023-02-19T04:55:10;8.90;99.90
8633;DHT22;4354;49.832;10.746;2023-02-19T04:57:37;8.90;99.90
8633;DHT22;4354;49.832;10.746;2023-02-19T05:00:04;8.90;99.90
8633;DHT22;4354;49.832;10.746;2023-02-19T05:02:31;8.90;99.90
8633;DHT22;4354;49.832;10.746;2023-02-19T05:04:58;8.90;99.90
8633;DHT22;4354;49.832;10.746;2023-02-19T05:07:24;8.90;99.90
8633;DHT22;4354;49.832;10.746;2023-02-19T05:09:51;8.90;99.90
8633;DHT22;4354;49.832;10.746;2023-02-19T05:12:18;8.90;99.90
8633;DHT22;4354;49.832;10.746;2023-02-19T05:14:45;8.80;99.90
8633;DHT22;4354;49.832;10.746;2023-02-19T05:17:12;8.90;99.90
8633;DHT22;4354;49.832;10.746;2023-02-19T05:19:39;8.90;99.90
8633;DHT22;4354;49.832;10.746;2023-02-19T05:22:05;8.80;99.90
8633;DHT22;4354;49.832;10.746;2023-02-19T05:24:32;8.80;99.90
8633;DHT22;4354;49.832;10.746;2023-02-19T05:26:59;8.80;99.90
8633;DHT22;4354;49.832;10.746;2023-02-19T05:29:26;8.80;99.90
8633;DHT22;4354;49.832;10.746;2023-02-19T05:31:53;8.80;99.90
8633;DHT22;4354;49.832;10.746;2023-02-19T05:34:20;8.80;99.90
8633;DHT22;4354;49.832;10.746;2023-02-19T05:36:47;8.80;99.90
8633;DHT22;4354;49.832;10.746;2023-02-19T05:39:14;8.70;99.90
8633;DHT22;4354;49.832;10.746;2023-02-19T05:41:40;8.60;99.90
8633;DHT22;4354;49.832;10.746;2023-02-19T05:44:09;8.60;99.90
8633;DHT22;4354;49.832;10.746;2023-02-19T05:46:36;8.60;99.90
8633;DHT22;4354;49.832;10.746;2023-02-19T05:49:02;8.60;99.90
8633;DHT22;4354;49.832;10.746;2023-02-19T05:51:29;8.60;99.90
8633;DHT22;4354;49.832;10.746;2023-02-19T05:53:57;8.60;99.90
8633;DHT22;4354;49.832;10.746;2023-02-19T05:56:34;8.60;99.90
8633;DHT22;4354;49.832;10.746;2023-02-19T05:59:05;8.60;99.90
8633;DHT22;4354;49.832;10.746;2023-02-19T06:01:34;8.60;99.90
8633;DHT22;4354;49.832;10.746;2023-02-19T06:04:00;8.70;99.90
8633;DHT22;4354;49.832;10.746;2023-02-19T06:06:27;8.60;99.90
8633;DHT22;4354;49.832;10.746;2023-02-19T06:08:54;8.60;99.90
8633;DHT22;4354;49.832;10.746;2023-02-19T06:11:23;8.60;99.90
8633;DHT22;4354;49.832;10.746;2023-02-19T06:13:50;8.70;99.90
8633;DHT22;4354;49.832;10.746;2023-02-19T06:16:17;8.70;99.90
8633;DHT22;4354;49.832;10.746;2023-02-19T06:18:44;8.80;99.90
8633;DHT22;4354;49.832;10.746;2023-02-19T06:21:12;8.90;99.90
8633;DHT22;4354;49.832;10.746;2023-02-19T06:23:39;8.90;99.90
8633;DHT22;4354;49.832;10.746;2023-02-19T06:28:41;8.90;99.90
8633;DHT22;4354;49.832;10.746;2023-02-19T06:31:09;8.90;99.90
8633;DHT22;4354;49.832;10.746;2023-02-19T06:33:37;8.90;99.90
8633;DHT22;4354;49.832;10.746;2023-02-19T06:36:11;8.90;99.90
8633;DHT22;4354;49.832;10.746;2023-02-19T06:38:38;8.90;99.90
8633;DHT22;4354;49.832;10.746;2023-02-19T06:41:05;8.90;99.90
8633;DHT22;4354;49.832;10.746;2023-02-19T06:43:33;8.90;99.90
8633;DHT22;4354;49.832;10.746;2023-02-19T06:46:02;8.90;99.90
8633;DHT22;4354;49.832;10.746;2023-02-19T06:48:30;8.90;99.90
8633;DHT22;4354;49.832;10.746;2023-02-19T06:50:57;8.90;99.90
8633;DHT22;4354;49.832;10.746;2023-02-19T06:53:24;8.90;99.90
8633;DHT22;4354;49.832;10.746;2023-02-19T06:55:59;8.90;99.90
8633;DHT22;4354;49.832;10.746;2023-02-19T06:58:26;8.90;99.90
8633;DHT22;4354;49.832;10.746;2023-02-19T07:00:53;8.90;99.90
8633;DHT22;4354;49.832;10.746;2023-02-19T07:03:20;8.90;99.90
8633;DHT22;4354;49.832;10.746;2023-02-19T07:05:48;8.90;99.90
8633;DHT22;4354;49.832;10.746;2023-02-19T07:08:15;8.90;99.90
8633;DHT22;4354;49.832;10.746;2023-02-19T07:10:45;8.90;99.90
8633;DHT22;4354;49.832;10.746;2023-02-19T07:13:11;9.00;99.90
8633;DHT22;4354;49.832;10.746;2023-02-19T07:15:38;9.00;99.90
8633;DHT22;4354;49.832;10.746;2023-02-19T07:18:05;9.00;99.90
8633;DHT22;4354;49.832;10.746;2023-02-19T07:20:35;9.00;99.90
8633;DHT22;4354;49.832;10.746;2023-02-19T07:23:03;9.00;99.90
8633;DHT22;4354;49.832;10.746;2023-02-19T07:25:29;9.00;99.90
8633;DHT22;4354;49.832;10.746;2023-02-19T07:27:56;9.00;99.90
8633;DHT22;4354;49.832;10.746;2023-02-19T07:30:23;9.00;99.90
8633;DHT22;4354;49.832;10.746;2023-02-19T07:32:50;9.00;99.90
8633;DHT22;4354;49.832;10.746;2023-02-19T07:35:16;9.00;99.90
8633;DHT22;4354;49.832;10.746;2023-02-19T07:37:43;9.10;99.90
8633;DHT22;4354;49.832;10.746;2023-02-19T07:40:10;9.20;99.90
8633;DHT22;4354;49.832;10.746;2023-02-19T07:42:37;9.20;99.90
8633;DHT22;4354;49.832;10.746;2023-02-19T07:45:04;9.20;99.90
8633;DHT22;4354;49.832;10.746;2023-02-19T07:47:31;9.10;99.90
8633;DHT22;4354;49.832;10.746;2023-02-19T07:49:57;9.10;99.90
8633;DHT22;4354;49.832;10.746;2023-02-19T07:52:24;9.10;99.90
8633;DHT22;4354;49.832;10.746;2023-02-19T07:54:51;9.10;99.90
8633;DHT22;4354;49.832;10.746;2023-02-19T07:57:18;9.10;99.90
8633;DHT22;4354;49.832;10.746;2023-02-19T07:59:45;9.20;99.90
8633;DHT22;4354;49.832;10.746;2023-02-19T08:02:19;9.20;99.90
8633;DHT22;4354;49.832;10.746;2023-02-19T08:05:05;9.20;99.90
8633;DHT22;4354;49.832;10.746;2023-02-19T08:07:33;9.30;99.90
8633;DHT22;4354;49.832;10.746;2023-02-19T08:10:04;9.50;99.90
8633;DHT22;4354;49.832;10.746;2023-02-19T08:12:56;9.60;99.90
8633;DHT22;4354;49.832;10.746;2023-02-19T08:15:42;9.60;99.90
8633;DHT22;4354;49.832;10.746;2023-02-19T08:18:09;9.50;99.90
8633;DHT22;4354;49.832;10.746;2023-02-19T08:20:36;9.50;99.90
8633;DHT22;4354;49.832;10.746;2023-02-19T08:23:03;9.60;99.90
8633;DHT22;4354;49.832;10.746;2023-02-19T08:25:31;9.60;99.90
8633;DHT22;4354;49.832;10.746;2023-02-19T08:27:58;9.70;99.90
8633;DHT22;4354;49.832;10.746;2023-02-19T08:30:29;9.70;99.90
8633;DHT22;4354;49.832;10.746;2023-02-19T08:32:57;9.80;99.90
8633;DHT22;4354;49.832;10.746;2023-02-19T08:35:28;9.80;99.90
8633;DHT22;4354;49.832;10.746;2023-02-19T08:37:57;9.90;99.90
8633;DHT22;4354;49.832;10.746;2023-02-19T08:40:25;10.00;99.90
8633;DHT22;4354;49.832;10.746;2023-02-19T08:42:52;10.00;99.90
8633;DHT22;4354;49.832;10.746;2023-02-19T08:45:19;10.00;99.90
8633;DHT22;4354;49.832;10.746;2023-02-19T08:47:46;10.00;99.90
8633;DHT22;4354;49.832;10.746;2023-02-19T08:50:12;10.10;99.90
8633;DHT22;4354;49.832;10.746;2023-02-19T08:52:39;10.10;99.90
8633;DHT22;4354;49.832;10.746;2023-02-19T08:55:06;10.10;99.90
8633;DHT22;4354;49.832;10.746;2023-02-19T08:57:36;10.00;99.90
8633;DHT22;4354;49.832;10.746;2023-02-19T09:00:05;10.00;99.90
8633;DHT22;4354;49.832;10.746;2023-02-19T09:02:32;9.90;99.90
8633;DHT22;4354;49.832;10.746;2023-02-19T09:04:59;9.90;99.90
8633;DHT22;4354;49.832;10.746;2023-02-19T09:07:26;9.80;99.90
8633;DHT22;4354;49.832;10.746;2023-02-19T09:09:53;9.80;99.90
8633;DHT22;4354;49.832;10.746;2023-02-19T09:12:20;9.80;99.90
8633;DHT22;4354;49.832;10.746;2023-02-19T09:14:47;9.80;99.90
8633;DHT22;4354;49.832;10.746;2023-02-19T09:17:13;9.80;99.90
8633;DHT22;4354;49.832;10.746;2023-02-19T09:19:40;9.80;99.90
8633;DHT22;4354;49.832;10.746;2023-02-19T09:22:07;9.80;99.90
8633;DHT22;4354;49.832;10.746;2023-02-19T09:24:34;9.80;99.90
8633;DHT22;4354;49.832;10.746;2023-02-19T09:27:01;9.70;99.90
8633;DHT22;4354;49.832;10.746;2023-02-19T09:29:28;9.70;99.90
8633;DHT22;4354;49.832;10.746;2023-02-19T09:31:56;9.60;99.90
8633;DHT22;4354;49.832;10.746;2023-02-19T09:34:25;9.60;99.90
8633;DHT22;4354;49.832;10.746;2023-02-19T09:36:52;9.60;99.90
8633;DHT22;4354;49.832;10.746;2023-02-19T09:39:19;9.60;99.90
8633;DHT22;4354;49.832;10.746;2023-02-19T09:42:00;9.60;99.90
8633;DHT22;4354;49.832;10.746;2023-02-19T09:44:39;9.50;99.90
8633;DHT22;4354;49.832;10.746;2023-02-19T09:47:19;9.50;99.90
8633;DHT22;4354;49.832;10.746;2023-02-19T09:49:48;9.50;99.90
8633;DHT22;4354;49.832;10.746;2023-02-19T09:52:42;9.50;99.90
8633;DHT22;4354;49.832;10.746;2023-02-19T09:55:16;9.40;99.90
8633;DHT22;4354;49.832;10.746;2023-02-19T09:57:46;9.40;99.90
8633;DHT22;4354;49.832;10.746;2023-02-19T10:00:25;9.50;99.90
8633;DHT22;4354;49.832;10.746;2023-02-19T10:03:02;9.50;99.90
8633;DHT22;4354;49.832;10.746;2023-02-19T10:05:31;9.60;99.90
8633;DHT22;4354;49.832;10.746;2023-02-19T10:07:58;9.70;99.90
8633;DHT22;4354;49.832;10.746;2023-02-19T10:10:33;9.80;99.90
8633;DHT22;4354;49.832;10.746;2023-02-19T10:13:20;9.80;99.90
8633;DHT22;4354;49.832;10.746;2023-02-19T10:15:51;9.90;99.90
8633;DHT22;4354;49.832;10.746;2023-02-19T10:18:21;9.90;99.90
8633;DHT22;4354;49.832;10.746;2023-02-19T10:20:50;9.90;99.90
8633;DHT22;4354;49.832;10.746;2023-02-19T10:23:17;9.80;99.90
8633;DHT22;4354;49.832;10.746;2023-02-19T10:25:47;9.70;99.90
8633;DHT22;4354;49.832;10.746;2023-02-19T10:28:18;9.70;99.90
8633;DHT22;4354;49.832;10.746;2023-02-19T10:30:51;9.70;99.90
8633;DHT22;4354;49.832;10.746;2023-02-19T10:33:19;9.80;99.90
8633;DHT22;4354;49.832;10.746;2023-02-19T10:36:04;9.80;99.90
8633;DHT22;4354;49.832;10.746;2023-02-19T10:38:34;9.90;99.90
8633;DHT22;4354;49.832;10.746;2023-02-19T10:41:07;10.00;99.90
8633;DHT22;4354;49.832;10.746;2023-02-19T10:43:41;10.20;99.90
8633;DHT22;4354;49.832;10.746;2023-02-19T10:46:26;10.40;99.90
8633;DHT22;4354;49.832;10.746;2023-02-19T10:48:54;10.70;99.90
8633;DHT22;4354;49.832;10.746;2023-02-19T10:51:31;10.90;99.90
8633;DHT22;4354;49.832;10.746;2023-02-19T10:54:15;11.40;99.90
8633;DHT22;4354;49.832;10.746;2023-02-19T10:56:42;11.70;99.90
8633;DHT22;4354;49.832;10.746;2023-02-19T10:59:27;12.10;99.90
8633;DHT22;4354;49.832;10.746;2023-02-19T11:01:59;12.30;99.90
8633;DHT22;4354;49.832;10.746;2023-02-19T11:04:27;12.30;99.90
8633;DHT22;4354;49.832;10.746;2023-02-19T11:06:56;12.10;99.90
8633;DHT22;4354;49.832;10.746;2023-02-19T11:09:41;11.80;99.90
8633;DHT22;4354;49.832;10.746;2023-02-19T11:12:23;11.50;99.90
8633;DHT22;4354;49.832;10.746;2023-02-19T11:14:51;11.40;99.90
8633;DHT22;4354;49.832;10.746;2023-02-19T11:17:27;11.20;99.90
8633;DHT22;4354;49.832;10.746;2023-02-19T11:19:57;11.40;99.90
8633;DHT22;4354;49.832;10.746;2023-02-19T11:22:37;11.00;99.90
8633;DHT22;4354;49.832;10.746;2023-02-19T11:30:34;10.60;99.90
8633;DHT22;4354;49.832;10.746;2023-02-19T11:36:34;10.90;99.90
8633;DHT22;4354;49.832;10.746;2023-02-19T11:38:41;10.80;99.90
8633;DHT22;4354;49.832;10.746;2023-02-19T11:50:01;10.70;99.90
8633;DHT22;4354;49.832;10.746;2023-02-19T11:52:41;10.70;99.90
8633;DHT22;4354;49.832;10.746;2023-02-19T12:05:10;10.00;99.90
8633;DHT22;4354;49.832;10.746;2023-02-19T12:08:08;10.00;99.90
8633;DHT22;4354;49.832;10.746;2023-02-19T12:16:05;9.80;99.90
8633;DHT22;4354;49.832;10.746;2023-02-19T12:35:22;11.00;99.90
8633;DHT22;4354;49.832;10.746;2023-02-19T12:43:36;11.60;99.90
8633;DHT22;4354;49.832;10.746;2023-02-19T12:46:14;11.70;99.90
8633;DHT22;4354;49.832;10.746;2023-02-19T12:48:51;12.00;99.90
8633;DHT22;4354;49.832;10.746;2023-02-19T12:51:29;12.00;99.90
8633;DHT22;4354;49.832;10.746;2023-02-19T12:56:56;12.00;99.90
8633;DHT22;4354;49.832;10.746;2023-02-19T12:59:34;12.10;99.90
8633;DHT22;4354;49.832;10.746;2023-02-19T13:02:14;12.30;99.90
8633;DHT22;4354;49.832;10.746;2023-02-19T13:05:12;12.30;99.90
8633;DHT22;4354;49.832;10.746;2023-02-19T13:12:54;12.20;99.90
8633;DHT22;4354;49.832;10.746;2023-02-19T13:15:42;12.20;99.90
8633;DHT22;4354;49.832;10.746;2023-02-19T13:18:24;12.10;99.90
8633;DHT22;4354;49.832;10.746;2023-02-19T13:20:53;12.10;99.90
8633;DHT22;4354;49.832;10.746;2023-02-19T13:23:27;12.00;99.90
8633;DHT22;4354;49.832;10.746;2023-02-19T13:26:44;11.90;99.90
8633;DHT22;4354;49.832;10.746;2023-02-19T13:37:33;11.00;99.90
8633;DHT22;4354;49.832;10.746;2023-02-19T13:40:16;10.80;99.90
8633;DHT22;4354;49.832;10.746;2023-02-19T13:42:51;10.70;99.90
8633;DHT22;4354;49.832;10.746;2023-02-19T13:48:01;10.60;99.90
8633;DHT22;4354;49.832;10.746;2023-02-19T13:50:38;10.60;99.90
8633;DHT22;4354;49.832;10.746;2023-02-19T14:14:46;10.50;99.90
8633;DHT22;4354;49.832;10.746;2023-02-19T14:22:47;10.50;99.90
8633;DHT22;4354;49.832;10.746;2023-02-19T14:25:27;10.50;99.90
8633;DHT22;4354;49.832;10.746;2023-02-19T14:30:53;10.40;99.90
8633;DHT22;4354;49.832;10.746;2023-02-19T14:33:32;10.40;99.90
8633;DHT22;4354;49.832;10.746;2023-02-19T14:36:45;10.50;99.90
8633;DHT22;4354;49.832;10.746;2023-02-19T14:39:21;10.70;99.90
8633;DHT22;4354;49.832;10.746;2023-02-19T14:41:50;10.80;99.90
8633;DHT22;4354;49.832;10.746;2023-02-19T14:44:30;11.00;99.90
8633;DHT22;4354;49.832;10.746;2023-02-19T14:47:06;11.20;99.90
8633;DHT22;4354;49.832;10.746;2023-02-19T14:49:44;11.40;99.90
8633;DHT22;4354;49.832;10.746;2023-02-19T14:52:22;11.50;99.90
8633;DHT22;4354;49.832;10.746;2023-02-19T14:57:27;11.20;99.90
8633;DHT22;4354;49.832;10.746;2023-02-19T15:00:00;11.10;99.90
8633;DHT22;4354;49.832;10.746;2023-02-19T15:02:29;11.10;99.90
8633;DHT22;4354;49.832;10.746;2023-02-19T15:04:57;11.00;99.90
8633;DHT22;4354;49.832;10.746;2023-02-19T15:07:27;10.90;99.90
8633;DHT22;4354;49.832;10.746;2023-02-19T15:09:58;10.90;99.90
8633;DHT22;4354;49.832;10.746;2023-02-19T15:12:48;10.90;99.90
8633;DHT22;4354;49.832;10.746;2023-02-19T15:15:27;10.80;99.90
8633;DHT22;4354;49.832;10.746;2023-02-19T15:17:56;10.80;99.90
8633;DHT22;4354;49.832;10.746;2023-02-19T15:20:27;10.70;99.90
8633;DHT22;4354;49.832;10.746;2023-02-19T15:22:55;10.60;99.90
8633;DHT22;4354;49.832;10.746;2023-02-19T15:25:35;10.50;99.90
8633;DHT22;4354;49.832;10.746;2023-02-19T15:33:25;10.40;99.90
8633;DHT22;4354;49.832;10.746;2023-02-19T15:35:58;10.30;99.90
8633;DHT22;4354;49.832;10.746;2023-02-19T15:38:26;10.30;99.90
8633;DHT22;4354;49.832;10.746;2023-02-19T15:40:53;10.20;99.90
8633;DHT22;4354;49.832;10.746;2023-02-19T15:43:53;10.20;99.90
8633;DHT22;4354;49.832;10.746;2023-02-19T15:46:23;10.10;99.90
8633;DHT22;4354;49.832;10.746;2023-02-19T15:49:08;10.10;99.90
8633;DHT22;4354;49.832;10.746;2023-02-19T15:51:45;10.10;99.90
8633;DHT22;4354;49.832;10.746;2023-02-19T15:54:26;10.10;99.90
8633;DHT22;4354;49.832;10.746;2023-02-19T15:56:56;10.10;99.90
8633;DHT22;4354;49.832;10.746;2023-02-19T15:59:35;10.10;99.90
8633;DHT22;4354;49.832;10.746;2023-02-19T16:02:03;10.10;99.90
8633;DHT22;4354;49.832;10.746;2023-02-19T16:04:33;10.10;99.90
8633;DHT22;4354;49.832;10.746;2023-02-19T16:07:01;10.00;99.90
8633;DHT22;4354;49.832;10.746;2023-02-19T16:09:37;10.10;99.90
8633;DHT22;4354;49.832;10.746;2023-02-19T16:12:22;10.00;99.90
8633;DHT22;4354;49.832;10.746;2023-02-19T16:14:49;9.90;99.90
8633;DHT22;4354;49.832;10.746;2023-02-19T16:17:19;9.90;99.90
8633;DHT22;4354;49.832;10.746;2023-02-19T16:19:57;9.90;99.90
8633;DHT22;4354;49.832;10.746;2023-02-19T16:22:29;9.90;99.90
8633;DHT22;4354;49.832;10.746;2023-02-19T16:25:03;9.90;99.90
8633;DHT22;4354;49.832;10.746;2023-02-19T16:27:39;9.80;99.90
8633;DHT22;4354;49.832;10.746;2023-02-19T16:32:43;9.80;99.90
8633;DHT22;4354;49.832;10.746;2023-02-19T16:35:37;9.70;99.90
8633;DHT22;4354;49.832;10.746;2023-02-19T16:38:18;9.70;99.90
8633;DHT22;4354;49.832;10.746;2023-02-19T16:41:05;9.60;99.90
8633;DHT22;4354;49.832;10.746;2023-02-19T16:43:41;9.50;99.90
8633;DHT22;4354;49.832;10.746;2023-02-19T16:46:09;9.40;99.90
8633;DHT22;4354;49.832;10.746;2023-02-19T16:48:37;9.40;99.90
8633;DHT22;4354;49.832;10.746;2023-02-19T16:51:05;9.30;99.90
8633;DHT22;4354;49.832;10.746;2023-02-19T16:53:32;9.30;99.90
8633;DHT22;4354;49.832;10.746;2023-02-19T16:55:59;9.20;99.90
8633;DHT22;4354;49.832;10.746;2023-02-19T16:58:26;9.10;99.90
8633;DHT22;4354;49.832;10.746;2023-02-19T17:00:53;9.10;99.90
8633;DHT22;4354;49.832;10.746;2023-02-19T17:03:21;9.00;99.90
8633;DHT22;4354;49.832;10.746;2023-02-19T17:05:50;9.00;99.90
8633;DHT22;4354;49.832;10.746;2023-02-19T17:10:57;8.90;99.90
8633;DHT22;4354;49.832;10.746;2023-02-19T17:13:27;9.00;99.90
8633;DHT22;4354;49.832;10.746;2023-02-19T17:15:55;9.00;99.90
8633;DHT22;4354;49.832;10.746;2023-02-19T17:18:22;8.90;99.90
8633;DHT22;4354;49.832;10.746;2023-02-19T17:20:53;8.90;99.90
8633;DHT22;4354;49.832;10.746;2023-02-19T17:23:20;8.80;99.90
8633;DHT22;4354;49.832;10.746;2023-02-19T17:25:49;8.80;99.90
8633;DHT22;4354;49.832;10.746;2023-02-19T17:28:16;8.80;99.90
8633;DHT22;4354;49.832;10.746;2023-02-19T17:30:43;8.70;99.90
8633;DHT22;4354;49.832;10.746;2023-02-19T17:33:10;8.70;99.90
8633;DHT22;4354;49.832;10.746;2023-02-19T17:35:36;8.70;99.90
8633;DHT22;4354;49.832;10.746;2023-02-19T17:38:03;8.60;99.90
8633;DHT22;4354;49.832;10.746;2023-02-19T17:40:35;8.50;99.90
8633;DHT22;4354;49.832;10.746;2023-02-19T17:43:03;8.40;99.90
8633;DHT22;4354;49.832;10.746;2023-02-19T17:45:30;8.40;99.90
8633;DHT22;4354;49.832;10.746;2023-02-19T17:47:58;8.40;99.90
8633;DHT22;4354;49.832;10.746;2023-02-19T17:50:27;8.30;99.90
8633;DHT22;4354;49.832;10.746;2023-02-19T17:52:55;8.20;99.90
8633;DHT22;4354;49.832;10.746;2023-02-19T17:55:22;8.20;99.90
8633;DHT22;4354;49.832;10.746;2023-02-19T17:57:50;8.10;99.90
8633;DHT22;4354;49.832;10.746;2023-02-19T18:00:20;8.00;99.90
8633;DHT22;4354;49.832;10.746;2023-02-19T18:02:47;8.00;99.90
8633;DHT22;4354;49.832;10.746;2023-02-19T18:05:14;8.10;99.90
8633;DHT22;4354;49.832;10.746;2023-02-19T18:07:41;8.10;99.90
8633;DHT22;4354;49.832;10.746;2023-02-19T18:10:08;8.10;99.90
8633;DHT22;4354;49.832;10.746;2023-02-19T18:12:37;8.20;99.90
8633;DHT22;4354;49.832;10.746;2023-02-19T18:15:06;8.30;99.90
8633;DHT22;4354;49.832;10.746;2023-02-19T18:17:34;8.30;99.90
8633;DHT22;4354;49.832;10.746;2023-02-19T18:20:01;8.30;99.90
8633;DHT22;4354;49.832;10.746;2023-02-19T18:22:30;8.30;99.90
8633;DHT22;4354;49.832;10.746;2023-02-19T18:24:57;8.30;99.90
8633;DHT22;4354;49.832;10.746;2023-02-19T18:27:24;8.30;99.90
8633;DHT22;4354;49.832;10.746;2023-02-19T18:29:53;8.20;99.90
8633;DHT22;4354;49.832;10.746;2023-02-19T18:32:21;8.20;99.90
8633;DHT22;4354;49.832;10.746;2023-02-19T18:34:54;8.20;99.90
8633;DHT22;4354;49.832;10.746;2023-02-19T18:37:23;8.20;99.90
8633;DHT22;4354;49.832;10.746;2023-02-19T18:39:51;8.20;99.90
8633;DHT22;4354;49.832;10.746;2023-02-19T18:42:18;8.20;99.90
8633;DHT22;4354;49.832;10.746;2023-02-19T18:44:47;8.20;99.90
8633;DHT22;4354;49.832;10.746;2023-02-19T18:47:15;8.20;99.90
8633;DHT22;4354;49.832;10.746;2023-02-19T18:49:46;8.30;99.90
8633;DHT22;4354;49.832;10.746;2023-02-19T18:52:14;8.30;99.90
8633;DHT22;4354;49.832;10.746;2023-02-19T18:54:41;8.20;99.90
8633;DHT22;4354;49.832;10.746;2023-02-19T18:57:08;8.20;99.90
8633;DHT22;4354;49.832;10.746;2023-02-19T18:59:35;8.20;99.90